createdAt,value
2022-11-16T00:02:14.986Z,97506.69
2022-11-16T00:04:42.159Z,97509.59
2022-11-16T00:07:10.551Z,97497.56
2022-11-16T00:09:41.644Z,97493.69
2022-11-16T00:12:11.155Z,97485.38
2022-11-16T00:14:42.824Z,97480.66
2022-11-16T00:17:11.686Z,97481.31
2022-11-16T00:19:39.283Z,97482.91
2022-11-16T00:22:06.250Z,97477.81
2022-11-16T00:24:36.039Z,97465.81
2022-11-16T00:27:06.835Z,97456.28
2022-11-16T00:29:33.956Z,97460.44
2022-11-16T00:32:01.239Z,97458.47
2022-11-16T00:34:28.227Z,97464.44
2022-11-16T00:36:57.756Z,97456.03
2022-11-16T00:39:25.371Z,97454.81
2022-11-16T00:41:55.501Z,97456.31
2022-11-16T00:44:23.571Z,97465.09
2022-11-16T00:46:50.596Z,97466.72
2022-11-16T00:49:20.182Z,97468.94
2022-11-16T00:51:47.004Z,97478.97
2022-11-16T00:54:13.834Z,97490.28
2022-11-16T00:56:40.884Z,97477.88
2022-11-16T00:59:07.956Z,97475.94
2022-11-16T01:01:35.372Z,97474.19
2022-11-16T01:04:02.228Z,97471.91
2022-11-16T01:06:29.466Z,97473.94
2022-11-16T01:08:56.863Z,97483.03
2022-11-16T01:11:42.519Z,97485.63
2022-11-16T01:14:10.440Z,97479.38
2022-11-16T01:16:37.646Z,97477.16
2022-11-16T01:19:05.687Z,97468.88
2022-11-16T01:21:33.230Z,97483.69
2022-11-16T01:24:00.791Z,97481.59
2022-11-16T01:26:28.347Z,97482.84
2022-11-16T01:28:55.352Z,97489.63
2022-11-16T01:31:23.115Z,97480.38
2022-11-16T01:33:51.320Z,97473.53
2022-11-16T01:36:19.511Z,97469.59
2022-11-16T01:38:50.778Z,97472.22
2022-11-16T01:41:21.060Z,97467.44
2022-11-16T01:44:02.697Z,97473.94
2022-11-16T01:46:31.301Z,97467.78
2022-11-16T01:49:06.045Z,97465.63
2022-11-16T01:51:34.248Z,97467.94
2022-11-16T01:54:05.901Z,97468.94
2022-11-16T01:56:33.562Z,97462.94
2022-11-16T01:59:00.438Z,97462.22
2022-11-16T02:01:27.550Z,97468.94
2022-11-16T02:03:54.380Z,97463.03
2022-11-16T02:06:33.140Z,97459.13
2022-11-16T02:09:39.974Z,97467.44
2022-11-16T02:12:09.549Z,97472.06
2022-11-16T02:14:49.930Z,97464.56
2022-11-16T02:17:36.765Z,97463.38
2022-11-16T02:20:31.488Z,97452.47
2022-11-16T02:23:13.506Z,97454.94
2022-11-16T02:26:20.066Z,97454.16
2022-11-16T02:28:46.948Z,97454.34
2022-11-16T02:31:29.618Z,97458.19
2022-11-16T02:33:57.715Z,97448.84
2022-11-16T02:36:25.847Z,97450.94
2022-11-16T02:39:01.358Z,97454.56
2022-11-16T02:41:32.579Z,97449.88
2022-11-16T02:44:08.768Z,97445.16
2022-11-16T02:46:44.381Z,97449.22
2022-11-16T02:49:17.745Z,97448.78
2022-11-16T02:51:51.086Z,97443.72
2022-11-16T02:54:20.549Z,97440.03
2022-11-16T02:57:03.222Z,97442.16
2022-11-16T02:59:54.208Z,97440.97
2022-11-16T03:02:46.915Z,97443.81
2022-11-16T03:05:39.947Z,97443.00
2022-11-16T03:08:19.345Z,97444.28
2022-11-16T03:11:10.397Z,97434.31
2022-11-16T03:13:41.123Z,97437.06
2022-11-16T03:16:22.158Z,97436.34
2022-11-16T03:18:52.301Z,97440.38
2022-11-16T03:21:29.938Z,97442.38
2022-11-16T03:23:57.876Z,97449.53
2022-11-16T03:26:30.865Z,97460.44
2022-11-16T03:29:05.783Z,97466.09
2022-11-16T03:31:42.243Z,97457.69
2022-11-16T03:34:16.558Z,97460.31
2022-11-16T03:36:49.947Z,97447.44
2022-11-16T03:39:33.398Z,97447.19
2022-11-16T03:42:12.465Z,97455.38
2022-11-16T03:44:39.269Z,97461.00
2022-11-16T03:47:06.871Z,97469.25
2022-11-16T03:49:33.857Z,97477.66
2022-11-16T03:52:00.835Z,97481.63
2022-11-16T03:54:27.783Z,97479.25
2022-11-16T03:56:54.862Z,97470.69
2022-11-16T03:59:21.537Z,97463.50
2022-11-16T04:01:50.726Z,97464.91
2022-11-16T04:04:36.421Z,97473.72
2022-11-16T04:07:21.742Z,97479.19
2022-11-16T04:10:07.071Z,97469.94
2022-11-16T04:12:52.940Z,97474.31
2022-11-16T04:15:42.931Z,97475.56
2022-11-16T04:18:29.192Z,97473.53
2022-11-16T04:21:15.743Z,97475.06
2022-11-16T04:24:01.459Z,97476.03
2022-11-16T04:26:57.144Z,97471.78
2022-11-16T04:29:25.700Z,97472.25
2022-11-16T04:32:11.456Z,97473.53
2022-11-16T04:34:56.816Z,97472.25
2022-11-16T04:37:41.931Z,97459.25
2022-11-16T04:40:12.319Z,97462.00
2022-11-16T04:42:39.451Z,97458.88
2022-11-16T04:45:25.069Z,97459.25
2022-11-16T04:47:52.703Z,97459.34
2022-11-16T04:50:20.658Z,97453.97
2022-11-16T04:52:47.717Z,97450.59
2022-11-16T04:55:14.799Z,97439.16
2022-11-16T04:57:41.852Z,97449.00
2022-11-16T05:00:09.180Z,97448.06
2022-11-16T05:02:37.328Z,97441.38
2022-11-16T05:05:04.593Z,97441.06
2022-11-16T05:07:31.743Z,97438.47
2022-11-16T05:09:59.740Z,97441.78
2022-11-16T05:12:28.596Z,97437.69
2022-11-16T05:15:15.487Z,97437.09
2022-11-16T05:17:42.911Z,97437.34
2022-11-16T05:20:29.353Z,97434.69
2022-11-16T05:22:58.132Z,97427.34
2022-11-16T05:25:25.084Z,97425.00
2022-11-16T05:27:57.452Z,97417.34
2022-11-16T05:30:24.145Z,97425.00
2022-11-16T05:32:51.175Z,97419.88
2022-11-16T05:35:18.118Z,97422.53
2022-11-16T05:37:45.128Z,97427.34
2022-11-16T05:40:16.231Z,97421.69
2022-11-16T05:42:43.121Z,97425.53
2022-11-16T05:45:18.439Z,97418.63
2022-11-16T05:47:49.907Z,97420.75
2022-11-16T05:50:19.937Z,97424.66
2022-11-16T05:52:46.936Z,97424.34
2022-11-16T05:55:17.121Z,97427.91
2022-11-16T05:57:44.063Z,97430.03
2022-11-16T06:00:12.984Z,97418.41
2022-11-16T06:02:39.480Z,97423.03
2022-11-16T06:05:06.043Z,97418.00
2022-11-16T06:07:34.143Z,97420.81
2022-11-16T06:10:00.633Z,97424.00
2022-11-16T06:12:26.977Z,97413.03
2022-11-16T06:14:53.357Z,97400.03
2022-11-16T06:17:19.688Z,97410.66
2022-11-16T06:19:46.129Z,97403.56
2022-11-16T06:22:12.534Z,97410.19
2022-11-16T06:24:38.919Z,97417.75
2022-11-16T06:27:05.351Z,97423.34
2022-11-16T06:29:31.798Z,97416.34
2022-11-16T06:31:58.186Z,97424.75
2022-11-16T06:34:25.070Z,97423.59
2022-11-16T06:36:51.584Z,97418.78
2022-11-16T06:39:18.047Z,97418.22
2022-11-16T06:41:44.477Z,97422.31
2022-11-16T06:44:11.084Z,97425.41
2022-11-16T06:46:37.498Z,97422.63
2022-11-16T06:49:04.093Z,97418.00
2022-11-16T06:51:30.673Z,97425.00
2022-11-16T06:53:57.127Z,97421.22
2022-11-16T06:56:23.806Z,97428.53
2022-11-16T06:58:53.265Z,97424.13
2022-11-16T07:01:20.410Z,97422.09
2022-11-16T07:03:46.966Z,97431.31
2022-11-16T07:06:14.356Z,97425.22
2022-11-16T07:08:41.298Z,97429.66
2022-11-16T07:11:09.550Z,97431.31
2022-11-16T07:13:37.774Z,97433.19
2022-11-16T07:16:06.732Z,97439.19
2022-11-16T07:18:35.610Z,97445.63
2022-11-16T07:21:07.439Z,97450.97
2022-11-16T07:23:34.556Z,97447.75
2022-11-16T07:26:02.670Z,97456.75
2022-11-16T07:28:29.708Z,97463.19
2022-11-16T07:31:01.637Z,97454.91
2022-11-16T07:34:37.303Z,97452.41
2022-11-16T07:38:17.803Z,97460.25
2022-11-16T07:41:53.425Z,97458.31
2022-11-16T07:45:32.264Z,97470.53
2022-11-16T07:48:23.916Z,97477.94
2022-11-16T07:50:50.420Z,97470.63
2022-11-16T07:53:17.176Z,97476.84
2022-11-16T07:55:43.621Z,97476.75
2022-11-16T07:58:12.769Z,97482.13
2022-11-16T08:00:39.347Z,97479.72
2022-11-16T08:03:06.627Z,97468.84
2022-11-16T08:05:33.113Z,97475.53
2022-11-16T08:07:59.608Z,97473.50
2022-11-16T08:10:26.123Z,97476.59
2022-11-16T08:12:53.257Z,97470.53
2022-11-16T08:15:19.811Z,97478.72
2022-11-16T08:17:47.754Z,97476.25
2022-11-16T08:20:14.509Z,97469.13
2022-11-16T08:22:41.021Z,97473.75
2022-11-16T08:25:07.994Z,97478.41
2022-11-16T08:27:35.460Z,97471.94
2022-11-16T08:30:04.780Z,97474.25
2022-11-16T08:32:31.550Z,97470.88
2022-11-16T08:34:58.071Z,97474.97
2022-11-16T08:37:26.023Z,97473.47
2022-11-16T08:39:52.503Z,97477.44
2022-11-16T08:42:18.946Z,97470.38
2022-11-16T08:44:45.847Z,97479.78
2022-11-16T08:47:12.772Z,97473.25
2022-11-16T08:49:39.297Z,97472.47
2022-11-16T08:52:06.188Z,97477.28
2022-11-16T08:54:32.698Z,97487.13
2022-11-16T08:56:59.344Z,97484.06
2022-11-16T08:59:25.892Z,97484.81
2022-11-16T09:01:52.567Z,97484.63
2022-11-16T09:04:19.630Z,97482.03
2022-11-16T09:06:46.307Z,97484.59
2022-11-16T09:09:12.971Z,97496.00
2022-11-16T09:11:39.578Z,97489.94
2022-11-16T09:14:06.282Z,97490.34
2022-11-16T09:16:32.793Z,97480.88
2022-11-16T09:18:59.353Z,97489.34
2022-11-16T09:21:27.724Z,97490.13
2022-11-16T09:23:55.495Z,97489.50
2022-11-16T09:26:23.563Z,97491.63
2022-11-16T09:28:58.841Z,97494.63
2022-11-16T09:31:27.623Z,97499.03
2022-11-16T09:33:58.676Z,97498.03
2022-11-16T09:36:27.448Z,97493.44
2022-11-16T09:39:19.431Z,97492.03
2022-11-16T09:41:52.394Z,97487.47
2022-11-16T09:44:57.508Z,97496.06
2022-11-16T09:47:52.025Z,97500.91
2022-11-16T09:50:53.117Z,97500.59
2022-11-16T09:53:34.250Z,97503.50
2022-11-16T09:56:19.181Z,97510.88
2022-11-16T09:59:02.741Z,97511.66
2022-11-16T10:01:48.301Z,97514.31
2022-11-16T10:04:44.353Z,97513.13
2022-11-16T10:07:45.815Z,97513.44
2022-11-16T10:10:52.341Z,97515.56
2022-11-16T10:14:15.735Z,97520.59
2022-11-16T10:17:23.157Z,97512.69
2022-11-16T10:19:58.593Z,97510.00
2022-11-16T10:22:44.052Z,97515.19
2022-11-16T10:25:51.168Z,97509.38
2022-11-16T10:28:20.721Z,97503.16
2022-11-16T10:31:09.196Z,97499.00
2022-11-16T10:33:38.151Z,97496.16
2022-11-16T10:36:12.985Z,97498.34
2022-11-16T10:38:41.126Z,97499.75
2022-11-16T10:41:21.350Z,97494.88
2022-11-16T10:43:48.707Z,97492.50
2022-11-16T10:46:39.716Z,97492.00
2022-11-16T10:49:27.172Z,97491.53
2022-11-16T10:51:53.994Z,97478.56
2022-11-16T10:54:20.475Z,97478.19
2022-11-16T10:56:49.742Z,97479.22
2022-11-16T10:59:19.394Z,97482.34
2022-11-16T11:01:53.165Z,97477.97
2022-11-16T11:04:31.320Z,97479.22
2022-11-16T11:07:30.603Z,97475.50
2022-11-16T11:09:57.165Z,97467.16
2022-11-16T11:12:41.188Z,97464.34
2022-11-16T11:15:26.178Z,97467.59
2022-11-16T11:18:16.807Z,97463.91
2022-11-16T11:20:46.863Z,97465.38
2022-11-16T11:23:16.397Z,97460.97
2022-11-16T11:25:56.711Z,97463.09
2022-11-16T11:28:32.577Z,97459.13
2022-11-16T11:31:17.320Z,97460.94
2022-11-16T11:33:51.102Z,97456.22
2022-11-16T11:36:24.026Z,97463.59
2022-11-16T11:39:03.467Z,97457.06
2022-11-16T11:41:37.019Z,97457.09
2022-11-16T11:44:04.756Z,97454.75
2022-11-16T11:47:18.344Z,97450.28
2022-11-16T11:49:33.616Z,97445.56
2022-11-16T11:52:09.359Z,97451.59
2022-11-16T11:54:45.671Z,97448.97
2022-11-16T11:57:15.630Z,97440.84
2022-11-16T11:59:42.301Z,97443.41
2022-11-16T12:02:23.984Z,97436.19
2022-11-16T12:05:29.902Z,97436.78
2022-11-16T12:08:05.664Z,97444.16
2022-11-16T12:10:48.806Z,97439.41
2022-11-16T12:13:36.958Z,97436.19
2022-11-16T12:16:47.695Z,97431.81
2022-11-16T12:19:43.785Z,97426.09
2022-11-16T12:22:26.407Z,97432.56
2022-11-16T12:25:12.396Z,97430.78
2022-11-16T12:28:08.553Z,97428.69
2022-11-16T12:30:49.047Z,97423.47
2022-11-16T12:33:50.228Z,97425.03
2022-11-16T12:36:48.283Z,97427.38
2022-11-16T12:39:33.223Z,97420.03
2022-11-16T12:41:59.707Z,97416.63
2022-11-16T12:44:31.896Z,97415.63
2022-11-16T12:47:13.549Z,97417.97
2022-11-16T12:49:59.233Z,97423.19
2022-11-16T12:52:41.381Z,97423.44
2022-11-16T12:55:52.880Z,97421.06
2022-11-16T12:58:23.537Z,97422.69
2022-11-16T13:01:16.288Z,97416.91
2022-11-16T13:04:09.699Z,97415.84
2022-11-16T13:06:50.874Z,97422.81
2022-11-16T13:09:26.390Z,97412.09
2022-11-16T13:12:00.642Z,97419.44
2022-11-16T13:14:40.091Z,97411.41
2022-11-16T13:17:07.787Z,97411.94
2022-11-16T13:19:42.037Z,97410.38
2022-11-16T13:22:18.005Z,97404.88
2022-11-16T13:25:17.871Z,97405.16
2022-11-16T13:27:53.966Z,97403.34
2022-11-16T13:30:24.797Z,97401.25
2022-11-16T13:33:22.566Z,97391.56
2022-11-16T13:35:52.548Z,97381.38
2022-11-16T13:38:53.827Z,97373.53
2022-11-16T13:41:33.782Z,97373.50
2022-11-16T13:44:02.061Z,97380.03
2022-11-16T13:46:55.906Z,97378.78
2022-11-16T13:49:33.790Z,97377.47
2022-11-16T13:52:31.748Z,97381.34
2022-11-16T13:55:01.614Z,97383.19
2022-11-16T13:57:34.112Z,97377.97
2022-11-16T14:00:00.595Z,97370.91
2022-11-16T14:02:37.440Z,97371.38
2022-11-16T14:05:06.662Z,97369.84
2022-11-16T14:07:43.264Z,97364.34
2022-11-16T14:10:11.450Z,97366.22
2022-11-16T14:12:38.245Z,97373.25
2022-11-16T14:15:32.035Z,97364.91
2022-11-16T14:18:00.820Z,97363.06
2022-11-16T14:20:37.251Z,97361.22
2022-11-16T14:23:22.500Z,97359.13
2022-11-16T14:25:53.307Z,97353.66
2022-11-16T14:28:34.866Z,97356.53
2022-11-16T14:31:20.243Z,97346.38
2022-11-16T14:33:52.355Z,97344.25
2022-11-16T14:36:36.403Z,97341.13
2022-11-16T14:39:37.239Z,97337.75
2022-11-16T14:42:16.319Z,97339.31
2022-11-16T14:44:44.015Z,97343.22
2022-11-16T14:47:24.819Z,97336.38
2022-11-16T14:49:52.208Z,97335.81
2022-11-16T14:52:29.196Z,97341.53
2022-11-16T14:55:00.669Z,97338.38
2022-11-16T14:57:27.260Z,97340.22
2022-11-16T15:00:19.585Z,97350.72
2022-11-16T15:02:59.150Z,97343.59
2022-11-16T15:05:33.732Z,97346.44
2022-11-16T15:08:03.743Z,97350.59
2022-11-16T15:10:30.395Z,97357.09
2022-11-16T15:12:57.860Z,97357.09
2022-11-16T15:15:30.453Z,97351.34
2022-11-16T15:17:59.767Z,97351.06
2022-11-16T15:20:32.256Z,97351.75
2022-11-16T15:23:00.344Z,97345.75
2022-11-16T15:25:34.858Z,97348.56
2022-11-16T15:28:13.247Z,97351.97
2022-11-16T15:30:40.558Z,97355.81
2022-11-16T15:33:15.532Z,97355.78
2022-11-16T15:35:42.610Z,97354.41
2022-11-16T15:38:22.991Z,97357.75
2022-11-16T15:40:51.817Z,97362.22
2022-11-16T15:43:20.155Z,97359.66
2022-11-16T15:45:47.304Z,97362.78
2022-11-16T15:48:22.589Z,97358.38
2022-11-16T15:51:05.027Z,97361.22
2022-11-16T15:53:40.577Z,97363.31
2022-11-16T15:56:25.068Z,97359.91
2022-11-16T15:58:53.919Z,97374.69
2022-11-16T16:01:22.169Z,97376.72
2022-11-16T16:04:04.214Z,97368.44
2022-11-16T16:06:49.731Z,97368.69
2022-11-16T16:09:32.988Z,97360.59
2022-11-16T16:12:20.861Z,97348.41
2022-11-16T16:14:49.297Z,97354.94
2022-11-16T16:17:29.923Z,97364.31
2022-11-16T16:20:09.193Z,97352.31
2022-11-16T16:22:40.084Z,97357.22
2022-11-16T16:25:07.416Z,97350.44
2022-11-16T16:27:39.542Z,97354.31
2022-11-16T16:30:07.426Z,97360.31
2022-11-16T16:32:37.062Z,97349.13
2022-11-16T16:35:08.590Z,97350.69
2022-11-16T16:37:38.619Z,97355.63
2022-11-16T16:40:05.999Z,97365.53
2022-11-16T16:42:32.702Z,97353.84
2022-11-16T16:45:00.398Z,97348.63
2022-11-16T16:47:29.540Z,97348.59
2022-11-16T16:49:56.019Z,97343.84
2022-11-16T16:52:23.107Z,97343.31
2022-11-16T16:54:50.434Z,97348.03
2022-11-16T16:57:18.745Z,97344.91
2022-11-16T16:59:48.313Z,97344.59
2022-11-16T17:02:16.230Z,97345.06
2022-11-16T17:04:44.057Z,97353.47
2022-11-16T17:07:10.767Z,97361.03
2022-11-16T17:09:37.359Z,97354.75
2022-11-16T17:12:04.199Z,97349.44
2022-11-16T17:14:30.748Z,97351.16
2022-11-16T17:16:57.486Z,97339.72
2022-11-16T17:19:24.435Z,97330.41
2022-11-16T17:21:52.143Z,97336.94
2022-11-16T17:24:18.817Z,97341.13
2022-11-16T17:26:48.455Z,97327.75
2022-11-16T17:29:15.376Z,97332.72
2022-11-16T17:31:44.898Z,97331.44
2022-11-16T17:34:13.829Z,97335.81
2022-11-16T17:36:41.402Z,97329.47
2022-11-16T17:39:08.024Z,97331.00
2022-11-16T17:41:34.927Z,97316.97
2022-11-16T17:44:01.489Z,97321.16
2022-11-16T17:46:29.424Z,97323.34
2022-11-16T17:48:56.438Z,97322.25
2022-11-16T17:51:25.073Z,97316.25
2022-11-16T17:53:52.667Z,97317.13
2022-11-16T17:56:22.018Z,97313.19
2022-11-16T17:58:52.118Z,97311.63
2022-11-16T18:01:19.191Z,97318.38
2022-11-16T18:03:45.951Z,97316.06
2022-11-16T18:06:15.243Z,97312.72
2022-11-16T18:08:43.733Z,97310.09
2022-11-16T18:11:11.777Z,97304.75
2022-11-16T18:13:42.344Z,97303.66
2022-11-16T18:16:13.628Z,97304.75
2022-11-16T18:18:40.280Z,97311.59
2022-11-16T18:21:08.207Z,97306.91
2022-11-16T18:23:38.285Z,97295.69
2022-11-16T18:26:14.038Z,97285.06
2022-11-16T18:28:41.236Z,97289.00
2022-11-16T18:31:13.281Z,97289.97
2022-11-16T18:33:40.127Z,97292.56
2022-11-16T18:36:08.331Z,97290.75
2022-11-16T18:38:36.464Z,97293.88
2022-11-16T18:41:25.191Z,97285.50
2022-11-16T18:43:54.333Z,97284.88
2022-11-16T18:46:23.777Z,97278.34
2022-11-16T18:48:51.426Z,97269.91
2022-11-16T18:51:22.388Z,97271.84
2022-11-16T18:53:50.191Z,97271.13
2022-11-16T18:56:17.788Z,97272.81
2022-11-16T18:58:52.471Z,97269.75
2022-11-16T19:01:24.635Z,97271.19
2022-11-16T19:03:53.554Z,97263.91
2022-11-16T19:06:21.169Z,97265.25
2022-11-16T19:08:55.552Z,97270.47
2022-11-16T19:11:23.457Z,97278.66
2022-11-16T19:13:54.411Z,97279.31
2022-11-16T19:16:21.526Z,97270.00
2022-11-16T19:18:48.314Z,97263.31
2022-11-16T19:21:18.635Z,97259.94
2022-11-16T19:23:47.794Z,97256.59
2022-11-16T19:26:16.051Z,97253.72
2022-11-16T19:28:45.013Z,97250.38
2022-11-16T19:31:14.005Z,97251.47
2022-11-16T19:33:42.008Z,97250.16
2022-11-16T19:36:11.632Z,97248.88
2022-11-16T19:38:39.225Z,97246.41
2022-11-16T19:41:07.678Z,97255.81
2022-11-16T19:43:35.281Z,97244.94
2022-11-16T19:46:04.221Z,97241.06
2022-11-16T19:48:32.813Z,97238.72
2022-11-16T19:51:08.151Z,97229.63
2022-11-16T19:53:36.234Z,97234.53
2022-11-16T19:56:05.015Z,97236.56
2022-11-16T19:58:33.235Z,97236.69
2022-11-16T20:01:08.000Z,97230.13
2022-11-16T20:03:35.513Z,97234.81
2022-11-16T20:06:16.492Z,97234.25
2022-11-16T20:08:48.357Z,97231.66
2022-11-16T20:11:24.305Z,97231.31
2022-11-16T20:13:55.925Z,97231.38
2022-11-16T20:16:25.664Z,97239.69
2022-11-16T20:18:53.577Z,97244.91
2022-11-16T20:21:26.128Z,97238.16
2022-11-16T20:23:53.523Z,97239.34
2022-11-16T20:26:25.205Z,97233.34
2022-11-16T20:28:53.022Z,97230.00
2022-11-16T20:31:28.850Z,97227.03
2022-11-16T20:34:00.461Z,97230.13
2022-11-16T20:36:30.499Z,97238.16
2022-11-16T20:38:59.032Z,97231.72
2022-11-16T20:41:28.318Z,97227.78
2022-11-16T20:43:57.298Z,97232.97
2022-11-16T20:46:27.289Z,97237.69
2022-11-16T20:48:55.950Z,97239.50
2022-11-16T20:51:23.299Z,97240.81
2022-11-16T20:53:50.731Z,97245.22
2022-11-16T20:56:19.530Z,97239.75
2022-11-16T20:58:47.185Z,97243.13
2022-11-16T21:01:16.823Z,97243.50
2022-11-16T21:03:47.139Z,97231.28
2022-11-16T21:06:14.466Z,97230.84
2022-11-16T21:08:41.877Z,97238.41
2022-11-16T21:11:16.780Z,97226.88
2022-11-16T21:14:06.076Z,97219.69
2022-11-16T21:16:33.897Z,97219.31
2022-11-16T21:19:01.382Z,97228.47
2022-11-16T21:21:28.478Z,97225.28
2022-11-16T21:23:55.255Z,97226.16
2022-11-16T21:26:26.974Z,97232.47
2022-11-16T21:28:55.479Z,97237.25
2022-11-16T21:31:25.719Z,97242.44
2022-11-16T21:33:53.396Z,97239.25
2022-11-16T21:36:25.296Z,97237.97
2022-11-16T21:38:52.919Z,97248.56
2022-11-16T21:41:22.314Z,97235.97
2022-11-16T21:43:49.020Z,97237.00
2022-11-16T21:46:22.007Z,97242.16
2022-11-16T21:48:50.924Z,97238.75
2022-11-16T21:51:19.641Z,97227.94
2022-11-16T21:53:46.387Z,97217.47
2022-11-16T21:56:15.561Z,97209.94
2022-11-16T21:58:48.173Z,97195.00
2022-11-16T22:01:16.198Z,97186.97
2022-11-16T22:03:43.269Z,97185.09
2022-11-16T22:06:31.812Z,97188.63
2022-11-16T22:08:58.371Z,97195.38
2022-11-16T22:11:24.919Z,97194.66
2022-11-16T22:13:51.481Z,97184.25
2022-11-16T22:16:19.613Z,97186.84
2022-11-16T22:18:46.478Z,97193.81
2022-11-16T22:21:13.262Z,97185.50
2022-11-16T22:23:40.039Z,97164.44
2022-11-16T22:26:09.324Z,97165.75
2022-11-16T22:28:36.742Z,97162.16
2022-11-16T22:31:06.007Z,97157.81
2022-11-16T22:33:33.699Z,97166.97
2022-11-16T22:36:00.966Z,97175.56
2022-11-16T22:38:27.589Z,97178.00
2022-11-16T22:40:56.494Z,97171.09
2022-11-16T22:43:25.378Z,97176.31
2022-11-16T22:45:51.832Z,97173.19
2022-11-16T22:48:18.325Z,97164.88
2022-11-16T22:50:44.785Z,97152.97
2022-11-16T22:53:11.224Z,97151.22
2022-11-16T22:55:38.599Z,97143.66
2022-11-16T22:58:05.796Z,97134.28
2022-11-16T23:00:39.003Z,97127.00
2022-11-16T23:03:08.519Z,97125.91
2022-11-16T23:05:34.978Z,97123.75
2022-11-16T23:08:01.442Z,97117.03
2022-11-16T23:10:50.903Z,97115.69
2022-11-16T23:13:36.143Z,97123.81
2022-11-16T23:16:05.911Z,97125.81
2022-11-16T23:18:32.370Z,97134.09
2022-11-16T23:21:17.432Z,97131.72
2022-11-16T23:24:03.072Z,97132.56
2022-11-16T23:26:47.824Z,97131.28
2022-11-16T23:29:14.533Z,97130.81
2022-11-16T23:31:40.995Z,97129.91
2022-11-16T23:34:07.395Z,97131.63
2022-11-16T23:36:34.350Z,97121.28
2022-11-16T23:39:00.746Z,97124.06
2022-11-16T23:41:45.781Z,97123.50
2022-11-16T23:44:12.292Z,97118.03
2022-11-16T23:46:38.773Z,97119.75
2022-11-16T23:49:05.378Z,97118.38
2022-11-16T23:51:31.778Z,97113.75
2022-11-16T23:54:01.287Z,97116.28
2022-11-16T23:56:27.685Z,97122.47
2022-11-16T23:58:57.374Z,97116.50
